sensor_id;sensor_type;location;lat;lon;timestamp;P1;durP1;ratioP1;P2;durP2;ratioP2
46110;SDS011;31849;55.992;37.252;2023-04-06T00:04:27;13.80;;;10.20;;
46110;SDS011;31849;55.992;37.252;2023-04-06T00:09:32;17.45;;;10.55;;
46110;SDS011;31849;55.992;37.252;2023-04-06T00:14:36;14.32;;;10.00;;
46110;SDS011;31849;55.992;37.252;2023-04-06T00:19:40;17.88;;;10.57;;
46110;SDS011;31849;55.992;37.252;2023-04-06T00:24:44;16.42;;;11.25;;
46110;SDS011;31849;55.992;37.252;2023-04-06T00:34:51;13.25;;;9.52;;
46110;SDS011;31849;55.992;37.252;2023-04-06T00:39:56;16.88;;;10.43;;
46110;SDS011;31849;55.992;37.252;2023-04-06T00:45:00;16.05;;;10.52;;
46110;SDS011;31849;55.992;37.252;2023-04-06T00:50:05;15.57;;;10.23;;
46110;SDS011;31849;55.992;37.252;2023-04-06T00:55:11;13.80;;;10.52;;
46110;SDS011;31849;55.992;37.252;2023-04-06T01:00:14;13.63;;;10.55;;
46110;SDS011;31849;55.992;37.252;2023-04-06T01:05:19;15.85;;;9.75;;
46110;SDS011;31849;55.992;37.252;2023-04-06T01:10:24;14.07;;;9.75;;
46110;SDS011;31849;55.992;37.252;2023-04-06T01:15:28;12.98;;;9.38;;
46110;SDS011;31849;55.992;37.252;2023-04-06T01:20:32;13.65;;;9.88;;
46110;SDS011;31849;55.992;37.252;2023-04-06T01:25:37;14.18;;;9.00;;
46110;SDS011;31849;55.992;37.252;2023-04-06T01:35:44;13.82;;;9.45;;
46110;SDS011;31849;55.992;37.252;2023-04-06T01:40:49;12.55;;;9.18;;
46110;SDS011;31849;55.992;37.252;2023-04-06T01:45:53;14.20;;;9.13;;
46110;SDS011;31849;55.992;37.252;2023-04-06T01:50:57;13.13;;;8.57;;
46110;SDS011;31849;55.992;37.252;2023-04-06T01:56:02;13.65;;;8.30;;
46110;SDS011;31849;55.992;37.252;2023-04-06T02:01:06;14.00;;;8.48;;
46110;SDS011;31849;55.992;37.252;2023-04-06T02:06:09;10.75;;;7.82;;
46110;SDS011;31849;55.992;37.252;2023-04-06T02:11:14;10.93;;;8.13;;
46110;SDS011;31849;55.992;37.252;2023-04-06T02:16:18;13.50;;;8.40;;
46110;SDS011;31849;55.992;37.252;2023-04-06T02:21:21;11.85;;;8.88;;
46110;SDS011;31849;55.992;37.252;2023-04-06T02:26:27;13.30;;;7.80;;
46110;SDS011;31849;55.992;37.252;2023-04-06T02:36:33;10.52;;;8.40;;
46110;SDS011;31849;55.992;37.252;2023-04-06T02:41:38;11.38;;;7.88;;
46110;SDS011;31849;55.992;37.252;2023-04-06T02:46:42;11.10;;;8.25;;
46110;SDS011;31849;55.992;37.252;2023-04-06T02:51:46;12.18;;;8.80;;
46110;SDS011;31849;55.992;37.252;2023-04-06T02:56:51;14.10;;;9.18;;
46110;SDS011;31849;55.992;37.252;2023-04-06T03:01:55;12.63;;;8.48;;
46110;SDS011;31849;55.992;37.252;2023-04-06T03:06:58;12.00;;;8.60;;
46110;SDS011;31849;55.992;37.252;2023-04-06T03:12:03;14.00;;;9.13;;
46110;SDS011;31849;55.992;37.252;2023-04-06T03:17:10;13.27;;;9.32;;
46110;SDS011;31849;55.992;37.252;2023-04-06T03:22:14;13.07;;;8.68;;
46110;SDS011;31849;55.992;37.252;2023-04-06T03:27:19;14.25;;;9.02;;
46110;SDS011;31849;55.992;37.252;2023-04-06T03:37:25;13.20;;;8.52;;
46110;SDS011;31849;55.992;37.252;2023-04-06T03:42:30;11.75;;;8.32;;
46110;SDS011;31849;55.992;37.252;2023-04-06T03:47:34;10.07;;;7.80;;
46110;SDS011;31849;55.992;37.252;2023-04-06T03:52:38;10.68;;;7.90;;
46110;SDS011;31849;55.992;37.252;2023-04-06T03:57:43;11.35;;;7.35;;
46110;SDS011;31849;55.992;37.252;2023-04-06T04:07:49;9.52;;;6.85;;
46110;SDS011;31849;55.992;37.252;2023-04-06T04:12:54;10.48;;;7.18;;
46110;SDS011;31849;55.992;37.252;2023-04-06T04:23:01;9.07;;;5.28;;
46110;SDS011;31849;55.992;37.252;2023-04-06T04:28:06;6.97;;;4.90;;
46110;SDS011;31849;55.992;37.252;2023-04-06T04:33:09;7.45;;;5.10;;
46110;SDS011;31849;55.992;37.252;2023-04-06T04:38:13;8.23;;;5.35;;
46110;SDS011;31849;55.992;37.252;2023-04-06T04:43:18;6.97;;;5.10;;
46110;SDS011;31849;55.992;37.252;2023-04-06T04:53:25;8.60;;;5.68;;
46110;SDS011;31849;55.992;37.252;2023-04-06T04:58:30;6.63;;;4.78;;
46110;SDS011;31849;55.992;37.252;2023-04-06T05:08:37;7.57;;;4.60;;
46110;SDS011;31849;55.992;37.252;2023-04-06T05:13:42;6.05;;;4.45;;
46110;SDS011;31849;55.992;37.252;2023-04-06T05:18:47;5.65;;;4.18;;
46110;SDS011;31849;55.992;37.252;2023-04-06T05:23:50;7.35;;;3.85;;
46110;SDS011;31849;55.992;37.252;2023-04-06T05:28:56;5.55;;;3.90;;
46110;SDS011;31849;55.992;37.252;2023-04-06T05:34:00;7.43;;;3.50;;
46110;SDS011;31849;55.992;37.252;2023-04-06T05:39:04;5.60;;;3.87;;
46110;SDS011;31849;55.992;37.252;2023-04-06T05:44:09;8.13;;;3.75;;
46110;SDS011;31849;55.992;37.252;2023-04-06T05:49:13;9.20;;;3.95;;
46110;SDS011;31849;55.992;37.252;2023-04-06T05:54:17;6.65;;;3.60;;
46110;SDS011;31849;55.992;37.252;2023-04-06T05:59:22;6.43;;;3.90;;
46110;SDS011;31849;55.992;37.252;2023-04-06T06:04:26;7.03;;;4.05;;
46110;SDS011;31849;55.992;37.252;2023-04-06T06:09:29;5.97;;;3.60;;
46110;SDS011;31849;55.992;37.252;2023-04-06T06:14:34;4.70;;;3.70;;
46110;SDS011;31849;55.992;37.252;2023-04-06T06:19:38;5.82;;;3.70;;
46110;SDS011;31849;55.992;37.252;2023-04-06T06:24:41;4.90;;;3.33;;
46110;SDS011;31849;55.992;37.252;2023-04-06T06:29:46;4.18;;;3.58;;
46110;SDS011;31849;55.992;37.252;2023-04-06T06:34:49;5.53;;;3.40;;
46110;SDS011;31849;55.992;37.252;2023-04-06T06:39:53;5.43;;;3.90;;
46110;SDS011;31849;55.992;37.252;2023-04-06T06:44:58;6.97;;;3.70;;
46110;SDS011;31849;55.992;37.252;2023-04-06T06:50:04;4.60;;;3.38;;
46110;SDS011;31849;55.992;37.252;2023-04-06T06:55:09;5.10;;;3.75;;
46110;SDS011;31849;55.992;37.252;2023-04-06T07:00:15;7.25;;;3.90;;
46110;SDS011;31849;55.992;37.252;2023-04-06T07:05:28;6.00;;;3.65;;
46110;SDS011;31849;55.992;37.252;2023-04-06T07:10:31;6.03;;;3.80;;
46110;SDS011;31849;55.992;37.252;2023-04-06T07:15:35;6.43;;;3.67;;
46110;SDS011;31849;55.992;37.252;2023-04-06T07:20:40;5.85;;;3.30;;
46110;SDS011;31849;55.992;37.252;2023-04-06T07:25:44;6.75;;;3.75;;
46110;SDS011;31849;55.992;37.252;2023-04-06T07:30:47;5.88;;;3.47;;
46110;SDS011;31849;55.992;37.252;2023-04-06T07:35:52;8.07;;;3.80;;
46110;SDS011;31849;55.992;37.252;2023-04-06T07:40:56;6.43;;;3.50;;
46110;SDS011;31849;55.992;37.252;2023-04-06T07:46:00;5.18;;;3.70;;
46110;SDS011;31849;55.992;37.252;2023-04-06T07:51:05;4.78;;;3.40;;
46110;SDS011;31849;55.992;37.252;2023-04-06T07:56:12;5.38;;;3.38;;
46110;SDS011;31849;55.992;37.252;2023-04-06T08:01:17;6.57;;;3.30;;
46110;SDS011;31849;55.992;37.252;2023-04-06T08:06:22;5.50;;;3.45;;
46110;SDS011;31849;55.992;37.252;2023-04-06T08:11:25;10.90;;;3.45;;
46110;SDS011;31849;55.992;37.252;2023-04-06T08:16:29;7.13;;;3.28;;
46110;SDS011;31849;55.992;37.252;2023-04-06T08:21:34;6.75;;;3.53;;
46110;SDS011;31849;55.992;37.252;2023-04-06T08:26:38;10.82;;;3.53;;
46110;SDS011;31849;55.992;37.252;2023-04-06T08:31:41;5.07;;;3.30;;
46110;SDS011;31849;55.992;37.252;2023-04-06T08:36:46;6.70;;;3.28;;
46110;SDS011;31849;55.992;37.252;2023-04-06T08:41:50;5.03;;;2.70;;
46110;SDS011;31849;55.992;37.252;2023-04-06T08:46:54;5.65;;;3.10;;
46110;SDS011;31849;55.992;37.252;2023-04-06T08:51:59;6.30;;;3.25;;
46110;SDS011;31849;55.992;37.252;2023-04-06T08:57:04;6.03;;;3.10;;
46110;SDS011;31849;55.992;37.252;2023-04-06T09:02:08;6.65;;;3.30;;
46110;SDS011;31849;55.992;37.252;2023-04-06T09:07:20;5.88;;;3.20;;
46110;SDS011;31849;55.992;37.252;2023-04-06T09:12:24;7.55;;;2.97;;
46110;SDS011;31849;55.992;37.252;2023-04-06T09:17:30;8.48;;;3.40;;
46110;SDS011;31849;55.992;37.252;2023-04-06T09:22:37;5.25;;;3.00;;
46110;SDS011;31849;55.992;37.252;2023-04-06T09:27:41;8.57;;;2.80;;
46110;SDS011;31849;55.992;37.252;2023-04-06T09:32:46;5.95;;;2.55;;
46110;SDS011;31849;55.992;37.252;2023-04-06T09:37:53;9.77;;;2.88;;
46110;SDS011;31849;55.992;37.252;2023-04-06T09:42:57;6.35;;;2.45;;
46110;SDS011;31849;55.992;37.252;2023-04-06T09:48:01;6.90;;;2.70;;
46110;SDS011;31849;55.992;37.252;2023-04-06T09:53:07;8.88;;;2.80;;
46110;SDS011;31849;55.992;37.252;2023-04-06T09:58:12;5.38;;;2.40;;
46110;SDS011;31849;55.992;37.252;2023-04-06T10:03:22;9.05;;;2.55;;
46110;SDS011;31849;55.992;37.252;2023-04-06T10:08:40;7.45;;;2.53;;
46110;SDS011;31849;55.992;37.252;2023-04-06T10:13:46;4.38;;;2.50;;
46110;SDS011;31849;55.992;37.252;2023-04-06T10:18:54;4.47;;;2.50;;
46110;SDS011;31849;55.992;37.252;2023-04-06T10:24:02;7.60;;;3.00;;
46110;SDS011;31849;55.992;37.252;2023-04-06T10:29:13;7.93;;;2.45;;
46110;SDS011;31849;55.992;37.252;2023-04-06T10:34:17;7.17;;;2.63;;
46110;SDS011;31849;55.992;37.252;2023-04-06T10:39:25;7.63;;;2.60;;
46110;SDS011;31849;55.992;37.252;2023-04-06T10:44:29;7.55;;;3.08;;
46110;SDS011;31849;55.992;37.252;2023-04-06T10:49:33;5.97;;;3.20;;
46110;SDS011;31849;55.992;37.252;2023-04-06T10:54:39;8.10;;;2.95;;
46110;SDS011;31849;55.992;37.252;2023-04-06T10:59:45;4.45;;;2.45;;
46110;SDS011;31849;55.992;37.252;2023-04-06T11:04:56;8.17;;;2.53;;
46110;SDS011;31849;55.992;37.252;2023-04-06T11:10:01;10.75;;;2.45;;
46110;SDS011;31849;55.992;37.252;2023-04-06T11:15:18;8.73;;;2.50;;
46110;SDS011;31849;55.992;37.252;2023-04-06T11:20:21;7.40;;;2.50;;
46110;SDS011;31849;55.992;37.252;2023-04-06T11:25:27;8.07;;;2.70;;
46110;SDS011;31849;55.992;37.252;2023-04-06T11:30:32;6.47;;;2.30;;
46110;SDS011;31849;55.992;37.252;2023-04-06T11:35:36;6.93;;;2.40;;
46110;SDS011;31849;55.992;37.252;2023-04-06T11:40:42;6.50;;;2.70;;
46110;SDS011;31849;55.992;37.252;2023-04-06T11:45:45;5.38;;;2.25;;
46110;SDS011;31849;55.992;37.252;2023-04-06T11:50:54;8.33;;;2.60;;
46110;SDS011;31849;55.992;37.252;2023-04-06T11:56:01;6.00;;;2.25;;
46110;SDS011;31849;55.992;37.252;2023-04-06T12:01:07;6.47;;;2.35;;
46110;SDS011;31849;55.992;37.252;2023-04-06T12:06:15;7.70;;;2.40;;
46110;SDS011;31849;55.992;37.252;2023-04-06T12:11:21;7.18;;;2.30;;
46110;SDS011;31849;55.992;37.252;2023-04-06T12:16:24;6.78;;;2.80;;
46110;SDS011;31849;55.992;37.252;2023-04-06T12:21:28;6.60;;;2.10;;
46110;SDS011;31849;55.992;37.252;2023-04-06T12:26:34;6.13;;;2.35;;
46110;SDS011;31849;55.992;37.252;2023-04-06T12:31:39;9.82;;;3.20;;
46110;SDS011;31849;55.992;37.252;2023-04-06T12:36:44;5.60;;;2.08;;
46110;SDS011;31849;55.992;37.252;2023-04-06T12:41:49;5.43;;;1.90;;
46110;SDS011;31849;55.992;37.252;2023-04-06T12:46:53;4.45;;;2.00;;
46110;SDS011;31849;55.992;37.252;2023-04-06T12:51:58;5.72;;;2.25;;
46110;SDS011;31849;55.992;37.252;2023-04-06T12:57:03;4.13;;;2.17;;
46110;SDS011;31849;55.992;37.252;2023-04-06T13:02:06;4.85;;;1.92;;
46110;SDS011;31849;55.992;37.252;2023-04-06T13:07:10;3.90;;;1.92;;
46110;SDS011;31849;55.992;37.252;2023-04-06T13:12:15;4.37;;;1.90;;
46110;SDS011;31849;55.992;37.252;2023-04-06T13:17:19;5.18;;;1.80;;
46110;SDS011;31849;55.992;37.252;2023-04-06T13:22:22;3.97;;;1.55;;
46110;SDS011;31849;55.992;37.252;2023-04-06T13:27:27;5.80;;;1.70;;
46110;SDS011;31849;55.992;37.252;2023-04-06T13:32:35;6.22;;;1.50;;
46110;SDS011;31849;55.992;37.252;2023-04-06T13:37:39;7.43;;;1.80;;
46110;SDS011;31849;55.992;37.252;2023-04-06T13:42:44;2.70;;;1.40;;
46110;SDS011;31849;55.992;37.252;2023-04-06T13:47:48;2.50;;;1.35;;
46110;SDS011;31849;55.992;37.252;2023-04-06T13:52:51;5.97;;;1.30;;
46110;SDS011;31849;55.992;37.252;2023-04-06T13:57:56;3.33;;;1.53;;
46110;SDS011;31849;55.992;37.252;2023-04-06T14:03:00;3.28;;;1.30;;
46110;SDS011;31849;55.992;37.252;2023-04-06T14:08:04;3.97;;;1.20;;
46110;SDS011;31849;55.992;37.252;2023-04-06T14:13:09;3.53;;;1.20;;
46110;SDS011;31849;55.992;37.252;2023-04-06T14:18:13;3.78;;;1.40;;
46110;SDS011;31849;55.992;37.252;2023-04-06T14:23:16;3.95;;;1.17;;
46110;SDS011;31849;55.992;37.252;2023-04-06T14:28:21;5.25;;;1.60;;
46110;SDS011;31849;55.992;37.252;2023-04-06T14:33:25;3.97;;;1.45;;
46110;SDS011;31849;55.992;37.252;2023-04-06T14:38:29;6.07;;;1.50;;
46110;SDS011;31849;55.992;37.252;2023-04-06T14:43:34;6.20;;;1.50;;
46110;SDS011;31849;55.992;37.252;2023-04-06T14:48:37;2.63;;;1.48;;
46110;SDS011;31849;55.992;37.252;2023-04-06T14:53:41;4.60;;;1.80;;
46110;SDS011;31849;55.992;37.252;2023-04-06T14:58:46;3.97;;;1.63;;
46110;SDS011;31849;55.992;37.252;2023-04-06T15:03:50;3.85;;;1.63;;
46110;SDS011;31849;55.992;37.252;2023-04-06T15:08:53;4.50;;;1.63;;
46110;SDS011;31849;55.992;37.252;2023-04-06T15:13:59;5.23;;;1.63;;
46110;SDS011;31849;55.992;37.252;2023-04-06T15:19:03;5.82;;;1.48;;
46110;SDS011;31849;55.992;37.252;2023-04-06T15:24:07;5.32;;;1.35;;
46110;SDS011;31849;55.992;37.252;2023-04-06T15:29:12;3.20;;;1.25;;
46110;SDS011;31849;55.992;37.252;2023-04-06T15:34:16;4.32;;;1.40;;
46110;SDS011;31849;55.992;37.252;2023-04-06T15:39:19;6.57;;;1.40;;
46110;SDS011;31849;55.992;37.252;2023-04-06T15:44:24;5.22;;;1.40;;
46110;SDS011;31849;55.992;37.252;2023-04-06T15:49:28;7.28;;;1.55;;
46110;SDS011;31849;55.992;37.252;2023-04-06T15:54:31;5.30;;;1.00;;
46110;SDS011;31849;55.992;37.252;2023-04-06T15:59:38;5.60;;;1.60;;
46110;SDS011;31849;55.992;37.252;2023-04-06T16:04:42;5.13;;;1.42;;
46110;SDS011;31849;55.992;37.252;2023-04-06T16:09:45;7.68;;;1.70;;
46110;SDS011;31849;55.992;37.252;2023-04-06T16:14:50;4.75;;;1.45;;
46110;SDS011;31849;55.992;37.252;2023-04-06T16:19:54;7.50;;;1.70;;
46110;SDS011;31849;55.992;37.252;2023-04-06T16:24:57;8.93;;;1.90;;
46110;SDS011;31849;55.992;37.252;2023-04-06T16:30:03;9.40;;;2.20;;
46110;SDS011;31849;55.992;37.252;2023-04-06T16:35:07;9.52;;;2.22;;
46110;SDS011;31849;55.992;37.252;2023-04-06T16:40:11;8.20;;;2.33;;
46110;SDS011;31849;55.992;37.252;2023-04-06T16:45:17;14.73;;;3.72;;
46110;SDS011;31849;55.992;37.252;2023-04-06T16:50:20;10.38;;;3.45;;
46110;SDS011;31849;55.992;37.252;2023-04-06T16:55:24;11.90;;;3.00;;
46110;SDS011;31849;55.992;37.252;2023-04-06T17:00:29;10.70;;;3.17;;
46110;SDS011;31849;55.992;37.252;2023-04-06T17:10:36;8.18;;;2.92;;
46110;SDS011;31849;55.992;37.252;2023-04-06T17:16:00;9.90;;;3.15;;
46110;SDS011;31849;55.992;37.252;2023-04-06T17:21:04;9.00;;;3.17;;
46110;SDS011;31849;55.992;37.252;2023-04-06T17:26:09;5.40;;;2.67;;
46110;SDS011;31849;55.992;37.252;2023-04-06T17:31:14;7.63;;;2.47;;
46110;SDS011;31849;55.992;37.252;2023-04-06T17:36:18;8.75;;;2.80;;
46110;SDS011;31849;55.992;37.252;2023-04-06T17:41:22;8.73;;;2.70;;
46110;SDS011;31849;55.992;37.252;2023-04-06T17:46:28;6.95;;;2.22;;
46110;SDS011;31849;55.992;37.252;2023-04-06T17:51:32;6.70;;;2.10;;
46110;SDS011;31849;55.992;37.252;2023-04-06T17:56:35;8.05;;;2.00;;
46110;SDS011;31849;55.992;37.252;2023-04-06T18:01:40;6.90;;;2.20;;
46110;SDS011;31849;55.992;37.252;2023-04-06T18:06:44;4.63;;;2.08;;
46110;SDS011;31849;55.992;37.252;2023-04-06T18:11:47;4.22;;;1.75;;
46110;SDS011;31849;55.992;37.252;2023-04-06T18:16:52;6.78;;;2.30;;
46110;SDS011;31849;55.992;37.252;2023-04-06T18:26:59;5.75;;;2.17;;
46110;SDS011;31849;55.992;37.252;2023-04-06T18:32:04;9.27;;;2.20;;
46110;SDS011;31849;55.992;37.252;2023-04-06T18:37:08;6.82;;;2.28;;
46110;SDS011;31849;55.992;37.252;2023-04-06T18:42:12;6.05;;;2.10;;
46110;SDS011;31849;55.992;37.252;2023-04-06T18:47:17;9.05;;;1.75;;
46110;SDS011;31849;55.992;37.252;2023-04-06T18:52:20;6.65;;;1.98;;
46110;SDS011;31849;55.992;37.252;2023-04-06T18:57:24;5.35;;;1.75;;
46110;SDS011;31849;55.992;37.252;2023-04-06T19:02:29;4.70;;;1.80;;
46110;SDS011;31849;55.992;37.252;2023-04-06T19:07:33;3.55;;;1.80;;
46110;SDS011;31849;55.992;37.252;2023-04-06T19:12:38;6.22;;;1.58;;
46110;SDS011;31849;55.992;37.252;2023-04-06T19:17:43;3.47;;;1.67;;
46110;SDS011;31849;55.992;37.252;2023-04-06T19:22:48;3.88;;;1.58;;
46110;SDS011;31849;55.992;37.252;2023-04-06T19:27:51;8.02;;;1.80;;
46110;SDS011;31849;55.992;37.252;2023-04-06T19:32:56;5.72;;;1.58;;
46110;SDS011;31849;55.992;37.252;2023-04-06T19:38:00;9.75;;;1.65;;
46110;SDS011;31849;55.992;37.252;2023-04-06T19:43:04;6.80;;;2.17;;
46110;SDS011;31849;55.992;37.252;2023-04-06T19:48:08;3.47;;;1.60;;
46110;SDS011;31849;55.992;37.252;2023-04-06T19:58:15;4.40;;;1.52;;
46110;SDS011;31849;55.992;37.252;2023-04-06T20:03:20;3.60;;;1.55;;
46110;SDS011;31849;55.992;37.252;2023-04-06T20:08:24;5.35;;;1.63;;
46110;SDS011;31849;55.992;37.252;2023-04-06T20:13:27;5.72;;;1.40;;
46110;SDS011;31849;55.992;37.252;2023-04-06T20:18:33;3.80;;;1.50;;
46110;SDS011;31849;55.992;37.252;2023-04-06T20:23:37;5.53;;;1.60;;
46110;SDS011;31849;55.992;37.252;2023-04-06T20:28:41;5.90;;;1.52;;
46110;SDS011;31849;55.992;37.252;2023-04-06T20:33:46;4.32;;;1.85;;
46110;SDS011;31849;55.992;37.252;2023-04-06T20:43:53;4.97;;;1.80;;
46110;SDS011;31849;55.992;37.252;2023-04-06T20:48:57;6.47;;;1.80;;
46110;SDS011;31849;55.992;37.252;2023-04-06T20:54:01;4.45;;;1.90;;
46110;SDS011;31849;55.992;37.252;2023-04-06T20:59:05;4.60;;;1.80;;
46110;SDS011;31849;55.992;37.252;2023-04-06T21:04:09;6.38;;;2.03;;
46110;SDS011;31849;55.992;37.252;2023-04-06T21:09:13;5.53;;;2.33;;
46110;SDS011;31849;55.992;37.252;2023-04-06T21:14:17;7.50;;;2.10;;
46110;SDS011;31849;55.992;37.252;2023-04-06T21:19:23;5.70;;;1.90;;
46110;SDS011;31849;55.992;37.252;2023-04-06T21:24:28;4.90;;;1.80;;
46110;SDS011;31849;55.992;37.252;2023-04-06T21:29:31;5.80;;;2.20;;
46110;SDS011;31849;55.992;37.252;2023-04-06T21:34:36;11.80;;;2.72;;
46110;SDS011;31849;55.992;37.252;2023-04-06T21:39:40;4.57;;;1.80;;
46110;SDS011;31849;55.992;37.252;2023-04-06T21:44:43;6.45;;;2.13;;
46110;SDS011;31849;55.992;37.252;2023-04-06T21:49:48;4.10;;;2.20;;
46110;SDS011;31849;55.992;37.252;2023-04-06T21:59:55;5.38;;;2.10;;
46110;SDS011;31849;55.992;37.252;2023-04-06T22:05:00;5.53;;;2.03;;
46110;SDS011;31849;55.992;37.252;2023-04-06T22:10:04;6.57;;;2.10;;
46110;SDS011;31849;55.992;37.252;2023-04-06T22:20:15;3.92;;;1.80;;
46110;SDS011;31849;55.992;37.252;2023-04-06T22:30:22;3.88;;;1.80;;
46110;SDS011;31849;55.992;37.252;2023-04-06T22:35:27;3.47;;;1.80;;
46110;SDS011;31849;55.992;37.252;2023-04-06T22:40:30;3.55;;;1.42;;
46110;SDS011;31849;55.992;37.252;2023-04-06T22:45:34;4.47;;;1.80;;
46110;SDS011;31849;55.992;37.252;2023-04-06T22:50:39;8.82;;;1.90;;
46110;SDS011;31849;55.992;37.252;2023-04-06T23:00:46;4.45;;;1.60;;
46110;SDS011;31849;55.992;37.252;2023-04-06T23:05:51;4.40;;;1.75;;
46110;SDS011;31849;55.992;37.252;2023-04-06T23:15:57;4.60;;;1.80;;
46110;SDS011;31849;55.992;37.252;2023-04-06T23:21:02;5.53;;;2.00;;
46110;SDS011;31849;55.992;37.252;2023-04-06T23:26:08;5.43;;;1.90;;
46110;SDS011;31849;55.992;37.252;2023-04-06T23:31:12;7.45;;;1.90;;
46110;SDS011;31849;55.992;37.252;2023-04-06T23:36:16;5.43;;;2.13;;
46110;SDS011;31849;55.992;37.252;2023-04-06T23:46:23;5.70;;;2.30;;
46110;SDS011;31849;55.992;37.252;2023-04-06T23:51:28;3.90;;;1.73;;
46110;SDS011;31849;55.992;37.252;2023-04-06T23:56:32;5.20;;;1.73;;
